Time;durP1;ratioP1;P1;durP2;ratioP2;P2;SDS_P1;SDS_P2;PMS_P1;PMS_P2;Temp;Humidity;BMP_temperature;BMP_pressure;BME280_temperature;BME280_humidity;BME280_pressure;Samples;Min_cycle;Max_cycle;Signal;HPM_P1;HPM_P2
2021/10/03 00:02:12;;;;;;;11.02;4.25;;;;;;;6.34;91.86;97768.28;5000755;28;20497;-65
2021/10/03 00:04:42;;;;;;;8.25;4.65;;;;;;;6.79;92.51;97863.91;5001077;28;20050;-65
2021/10/03 00:07:10;;;;;;;6.68;4.05;;;;;;;6.76;92.31;97848.06;5001210;28;20149;-65
2021/10/03 00:09:38;;;;;;;8.43;4.95;;;;;;;6.69;93.68;97842.22;4999925;28;20061;-67
2021/10/03 00:12:05;;;;;;;9.10;4.35;;;;;;;6.36;94.07;97846.59;5000959;28;20048;-66
2021/10/03 00:14:32;;;;;;;10.63;4.63;;;;;;;6.11;94.50;97762.97;4999219;28;20073;-65
2021/10/03 00:16:59;;;;;;;8.02;4.03;;;;;;;6.69;94.66;97841.41;5001017;28;20046;-64
2021/10/03 00:19:28;;;;;;;9.48;4.50;;;;;;;6.65;95.10;97838.50;5001072;28;20097;-66
2021/10/03 00:21:56;;;;;;;7.40;4.20;;;;;;;6.56;95.38;97837.69;5000989;28;20061;-65
2021/10/03 00:24:24;;;;;;;10.95;5.07;;;;;;;6.56;95.56;97840.44;5000079;28;20071;-66
2021/10/03 00:26:51;;;;;;;8.45;4.40;;;;;;;6.60;95.75;97837.84;5000723;28;20084;-65
2021/10/03 00:29:17;;;;;;;10.48;4.93;;;;;;;6.70;93.91;97832.81;5000930;28;20050;-66
2021/10/03 00:31:44;;;;;;;8.02;4.25;;;;;;;6.69;94.10;97846.91;5000936;28;20050;-65
2021/10/03 00:34:11;;;;;;;9.43;4.38;;;;;;;6.66;92.74;97842.88;5000213;28;20054;-65
2021/10/03 00:36:38;;;;;;;7.82;4.40;;;;;;;6.64;92.45;97850.63;5000743;28;20061;-65
2021/10/03 00:39:05;;;;;;;8.98;4.50;;;;;;;6.66;92.43;97842.88;5000864;28;20054;-65
2021/10/03 00:41:32;;;;;;;11.05;4.50;;;;;;;6.30;92.45;97798.38;5000633;28;20060;-65
2021/10/03 00:44:00;;;;;;;10.52;4.82;;;;;;;6.75;92.51;97835.41;5000920;28;20123;-65
2021/10/03 00:46:26;;;;;;;9.48;4.88;;;;;;;6.66;92.39;97837.38;5000334;28;20062;-64
2021/10/03 00:48:53;;;;;;;10.15;5.13;;;;;;;5.44;92.58;97670.22;4999041;28;20058;-65
2021/10/03 00:51:20;;;;;;;8.43;5.18;;;;;;;5.92;92.26;97750.66;5000309;28;20064;-64
2021/10/03 00:53:47;;;;;;;10.30;5.55;;;;;;;6.04;92.21;97786.56;5000691;28;20062;-64
2021/10/03 00:56:15;;;;;;;8.18;5.40;;;;;;;6.48;92.46;97827.50;5000373;28;20049;-64
2021/10/03 00:58:43;;;;;;;13.48;6.03;;;;;;;6.62;92.58;97833.66;5000767;28;20050;-63
2021/10/03 01:01:11;;;;;;;10.25;5.10;;;;;;;6.63;93.41;97829.75;5000313;28;20085;-66
2021/10/03 01:03:39;;;;;;;9.68;6.00;;;;;;;6.58;93.82;97818.09;4999241;28;20150;-65
2021/10/03 01:06:07;;;;;;;10.18;4.80;;;;;;;6.63;94.33;97818.75;5000076;28;20063;-67
2021/10/03 01:08:36;;;;;;;10.38;5.45;;;;;;;6.57;94.76;97827.50;5002559;28;20508;-65
2021/10/03 01:11:04;;;;;;;9.43;4.85;;;;;;;6.10;93.88;97744.03;5003452;28;20056;-65
2021/10/03 01:13:31;;;;;;;8.07;4.68;;;;;;;6.62;92.96;97814.41;5003798;28;20058;-65
2021/10/03 01:15:59;;;;;;;7.68;4.68;;;;;;;6.61;92.97;97818.25;5003232;28;20054;-64
2021/10/03 01:18:26;;;;;;;7.80;4.45;;;;;;;6.01;92.42;97726.72;5004138;28;20049;-64
2021/10/03 01:20:53;;;;;;;7.65;4.75;;;;;;;6.54;92.73;97817.97;5002064;28;20050;-65
2021/10/03 01:23:20;;;;;;;9.70;4.50;;;;;;;6.61;92.04;97810.00;5002068;28;20049;-65
2021/10/03 01:25:50;;;;;;;9.93;4.55;;;;;;;6.58;92.66;97813.41;5003206;28;20060;-66
2021/10/03 01:28:18;;;;;;;9.18;3.92;;;;;;;6.60;91.36;97808.41;5003214;28;20418;-64
2021/10/03 01:30:48;;;;;;;11.50;4.47;;;;;;;6.52;91.85;97803.72;5002713;28;20058;-64
2021/10/03 01:33:16;;;;;;;10.88;4.53;;;;;;;6.01;91.92;97752.28;5003524;28;20069;-65
2021/10/03 01:35:45;;;;;;;6.43;4.28;;;;;;;6.31;92.79;97802.75;5003618;28;20523;-64
2021/10/03 01:38:14;;;;;;;13.27;5.40;;;;;;;5.54;92.20;97672.69;5002111;28;20821;-64
2021/10/03 01:40:43;;;;;;;9.52;5.15;;;;;;;6.26;93.43;97800.16;5003333;28;20054;-65
2021/10/03 01:43:10;;;;;;;11.40;4.28;;;;;;;5.45;94.12;97669.13;4979767;28;20436;-64
2021/10/03 01:45:37;;;;;;;10.20;4.53;;;;;;;6.24;94.07;97796.94;5087088;28;20085;-66
2021/10/03 01:48:13;;;;;;;9.27;5.93;;;;;;;5.84;94.46;97757.78;5003096;28;20091;-64
2021/10/03 01:50:44;;;;;;;11.93;5.57;;;;;;;6.10;94.16;97796.28;5001375;28;20101;-64
2021/10/03 01:53:15;;;;;;;10.27;6.13;;;;;;;5.72;94.12;97730.06;5002973;28;20058;-65
2021/10/03 01:55:43;;;;;;;15.20;7.88;;;;;;;6.13;94.48;97792.88;5002797;28;20061;-66
2021/10/03 01:58:11;;;;;;;10.23;6.75;;;;;;;6.12;94.66;97785.75;5002025;28;20041;-64
2021/10/03 02:00:41;;;;;;;11.20;6.45;;;;;;;6.25;93.22;97795.78;5002753;28;20081;-66
2021/10/03 02:03:08;;;;;;;13.85;6.25;;;;;;;6.26;92.49;97789.16;5002806;28;20069;-64
2021/10/03 02:05:38;;;;;;;11.18;6.78;;;;;;;6.33;94.00;97789.47;5000774;28;20068;-64
2021/10/03 02:08:06;;;;;;;13.18;6.72;;;;;;;6.34;93.70;97790.31;5003141;28;20062;-64
2021/10/03 02:10:35;;;;;;;12.65;6.80;;;;;;;6.34;94.29;97785.59;5002514;28;20526;-63
2021/10/03 02:13:03;;;;;;;11.00;6.85;;;;;;;5.84;93.27;97732.22;5002407;28;20159;-65
2021/10/03 02:15:30;;;;;;;11.32;5.82;;;;;;;6.27;92.77;97789.97;5002413;28;20050;-66
2021/10/03 02:17:57;;;;;;;14.18;6.97;;;;;;;6.10;92.41;97769.56;5002483;28;20409;-64
2021/10/03 02:20:25;;;;;;;12.45;7.07;;;;;;;6.05;93.31;97777.19;5001895;28;20050;-66
2021/10/03 02:22:53;;;;;;;12.60;6.95;;;;;;;6.21;93.04;97797.59;5001168;28;20049;-64
2021/10/03 02:25:20;;;;;;;13.95;6.93;;;;;;;6.16;92.27;97767.50;5001130;28;20042;-65
2021/10/03 02:27:47;;;;;;;10.60;5.93;;;;;;;6.25;92.74;97790.28;5000822;28;20068;-66
2021/10/03 02:30:14;;;;;;;12.02;6.50;;;;;;;6.15;93.62;97787.84;4991640;28;20076;-64
2021/10/03 02:32:41;;;;;;;11.27;6.53;;;;;;;6.09;92.88;97772.66;5002679;28;20046;-66
2021/10/03 02:35:09;;;;;;;11.63;6.85;;;;;;;6.17;93.55;97785.59;5002150;28;20054;-67
2021/10/03 02:37:36;;;;;;;11.75;5.82;;;;;;;5.84;91.69;97721.22;5002067;28;20054;-66
2021/10/03 02:40:07;;;;;;;8.73;6.25;;;;;;;6.25;93.14;97790.28;5001961;28;20053;-66
2021/10/03 02:42:34;;;;;;;10.50;4.55;;;;;;;6.17;92.86;97782.84;5002114;28;20596;-65
2021/10/03 02:45:01;;;;;;;7.10;4.80;;;;;;;5.93;93.40;97749.50;5002145;28;20060;-64
2021/10/03 02:47:28;;;;;;;10.07;5.10;;;;;;;5.59;93.99;97691.75;5002242;28;20049;-64
2021/10/03 02:49:54;;;;;;;9.23;4.45;;;;;;;5.95;95.96;97794.00;5000987;28;20057;-64
2021/10/03 02:52:21;;;;;;;8.75;5.38;;;;;;;6.03;95.22;97782.19;5002067;28;20166;-64
2021/10/03 02:54:48;;;;;;;7.13;4.50;;;;;;;5.71;95.41;97736.69;5002436;28;20072;-64
2021/10/03 02:57:15;;;;;;;6.68;3.72;;;;;;;5.84;95.20;97770.69;5001284;28;20034;-63
2021/10/03 02:59:42;;;;;;;12.43;4.30;;;;;;;5.84;96.15;97773.44;5002186;28;20076;-64
2021/10/03 03:02:08;;;;;;;8.15;3.63;;;;;;;5.96;95.80;97790.09;5001396;28;20062;-65
2021/10/03 03:04:35;;;;;;;8.00;4.35;;;;;;;5.94;94.59;97787.69;5001898;28;20054;-65
2021/10/03 03:07:02;;;;;;;7.63;4.43;;;;;;;5.86;94.24;97787.69;5000375;28;20067;-64
2021/10/03 03:09:29;;;;;;;8.68;5.40;;;;;;;5.51;94.23;97729.09;5001959;28;20407;-64
2021/10/03 03:11:56;;;;;;;10.82;5.50;;;;;;;5.83;94.05;97780.09;5001336;28;20050;-64
2021/10/03 03:14:23;;;;;;;9.45;5.00;;;;;;;5.84;93.85;97788.03;5000560;28;20054;-63
2021/10/03 03:16:52;;;;;;;10.50;5.03;;;;;;;5.79;93.43;97779.06;5000749;28;20148;-64
2021/10/03 03:19:19;;;;;;;9.68;5.45;;;;;;;5.84;94.77;97778.94;5001560;28;20056;-63
2021/10/03 03:21:46;;;;;;;8.55;5.43;;;;;;;5.76;93.86;97764.03;4999826;28;20061;-63
2021/10/03 03:24:14;;;;;;;10.18;5.40;;;;;;;5.90;94.62;97780.41;5001903;28;20526;-63
2021/10/03 03:26:41;;;;;;;16.50;6.95;;;;;;;5.94;94.23;97778.66;4999816;28;20413;-63
2021/10/03 03:29:08;;;;;;;16.58;7.50;;;;;;;5.91;93.11;97788.34;5001178;28;20061;-65
2021/10/03 03:31:34;;;;;;;17.08;7.03;;;;;;;5.29;93.88;97703.69;5001509;28;20067;-62
2021/10/03 03:34:01;;;;;;;20.55;8.65;;;;;;;5.47;95.50;97782.25;5001264;28;20052;-63
2021/10/03 03:36:28;;;;;;;14.38;7.15;;;;;;;4.82;98.38;97753.91;5001357;28;20054;-63
2021/10/03 03:38:54;;;;;;;18.98;7.75;;;;;;;5.44;96.86;97796.59;5001956;28;20056;-65
2021/10/03 03:41:21;;;;;;;14.73;6.30;;;;;;;5.41;96.80;97797.25;5000953;28;20318;-64
2021/10/03 03:43:48;;;;;;;14.48;6.85;;;;;;;4.82;96.00;97693.53;5001418;28;20050;-63
2021/10/03 03:46:16;;;;;;;17.58;8.05;;;;;;;5.50;96.65;97792.59;4999584;28;20050;-63
2021/10/03 03:48:43;;;;;;;21.48;8.30;;;;;;;5.55;96.87;97785.00;5000065;28;20080;-65
2021/10/03 03:51:09;;;;;;;17.20;7.05;;;;;;;5.59;97.35;97785.19;5001610;28;20054;-63
2021/10/03 03:53:36;;;;;;;10.80;6.10;;;;;;;5.43;97.05;97764.78;4999654;28;20143;-65
2021/10/03 03:56:04;;;;;;;10.98;5.90;;;;;;;4.93;95.43;97670.97;4999833;28;20050;-63
2021/10/03 03:58:31;;;;;;;11.43;5.75;;;;;;;5.33;94.42;97726.59;5000869;28;20061;-65
2021/10/03 04:00:57;;;;;;;9.32;5.32;;;;;;;5.65;94.52;97783.91;5000925;28;20472;-65
2021/10/03 04:03:24;;;;;;;7.57;5.03;;;;;;;5.21;95.44;97718.19;5001073;28;20433;-63
2021/10/03 04:05:51;;;;;;;9.30;5.38;;;;;;;5.57;95.78;97792.94;5001349;28;20058;-64
2021/10/03 04:08:19;;;;;;;12.35;5.15;;;;;;;5.25;95.33;97754.88;5001395;28;20153;-63
2021/10/03 04:10:46;;;;;;;12.32;5.10;;;;;;;5.59;94.17;97797.00;5000851;28;20450;-64
2021/10/03 04:13:13;;;;;;;12.88;5.05;;;;;;;5.62;92.69;97812.03;5000887;28;20505;-64
2021/10/03 04:15:40;;;;;;;10.38;5.00;;;;;;;5.56;93.00;97797.63;5000650;28;20054;-64
2021/10/03 04:18:07;;;;;;;10.52;5.72;;;;;;;5.49;93.15;97801.97;5000919;28;20406;-64
2021/10/03 04:20:34;;;;;;;13.57;6.60;;;;;;;5.54;92.59;97799.06;5000710;28;20064;-65
2021/10/03 04:23:01;;;;;;;13.43;7.07;;;;;;;5.55;93.51;97790.50;4999778;28;20060;-65
2021/10/03 04:25:27;;;;;;;9.98;5.45;;;;;;;5.63;94.40;97791.66;5000440;28;20475;-64
2021/10/03 04:27:54;;;;;;;10.82;5.80;;;;;;;5.15;93.88;97730.47;4999228;28;20056;-65
2021/10/03 04:30:21;;;;;;;13.52;6.15;;;;;;;5.29;94.05;97764.09;4999340;28;20064;-63
2021/10/03 04:32:48;;;;;;;11.32;6.07;;;;;;;5.60;94.43;97803.28;5000696;28;20532;-64
2021/10/03 04:35:15;;;;;;;15.07;8.32;;;;;;;5.15;93.84;97741.44;5000783;28;20054;-65
2021/10/03 04:37:41;;;;;;;16.05;8.88;;;;;;;5.72;93.68;97811.72;4999442;28;20540;-63
2021/10/03 04:40:09;;;;;;;15.00;7.97;;;;;;;4.96;93.28;97694.22;5000988;28;20054;-63
2021/10/03 04:42:37;;;;;;;14.57;7.80;;;;;;;5.76;93.48;97813.50;5001642;28;20436;-63
2021/10/03 04:45:05;;;;;;;12.32;6.45;;;;;;;5.74;93.89;97792.97;5002713;28;20517;-64
2021/10/03 04:47:32;;;;;;;17.85;9.10;;;;;;;5.81;93.51;97816.13;5003900;28;20054;-62
2021/10/03 04:50:00;;;;;;;16.17;7.70;;;;;;;5.88;93.21;97815.69;5002447;28;20065;-67
2021/10/03 04:52:27;;;;;;;11.65;7.03;;;;;;;5.04;93.90;97724.47;5001943;28;20061;-66
2021/10/03 04:54:54;;;;;;;14.73;7.65;;;;;;;5.68;94.19;97761.28;5002251;28;20058;-65
2021/10/03 04:57:20;;;;;;;11.48;6.40;;;;;;;5.72;93.92;97751.25;5002813;28;20054;-65
2021/10/03 04:59:47;;;;;;;11.40;6.40;;;;;;;6.25;92.87;97815.06;5002306;28;20058;-67
2021/10/03 05:02:14;;;;;;;15.13;6.70;;;;;;;6.38;93.07;97830.59;5003570;28;20062;-65
2021/10/03 05:04:41;;;;;;;21.27;10.27;;;;;;;6.50;92.72;97828.00;5002088;28;20046;-65
2021/10/03 05:07:07;;;;;;;16.38;9.10;;;;;;;6.62;92.17;97824.59;5003377;28;20064;-66
2021/10/03 05:09:34;;;;;;;13.20;7.72;;;;;;;6.65;92.28;97807.41;5002075;28;20058;-65
2021/10/03 05:12:01;;;;;;;17.88;6.40;;;;;;;6.85;92.92;97824.06;5003559;28;20084;-65
2021/10/03 05:14:28;;;;;;;11.98;5.57;;;;;;;7.03;92.71;97828.41;5003471;28;20054;-66
2021/10/03 05:16:55;;;;;;;9.95;5.15;;;;;;;7.08;90.79;97797.13;5003349;28;20053;-66
2021/10/03 05:19:21;;;;;;;9.27;4.90;;;;;;;7.28;91.21;97822.00;5002525;28;20628;-64
2021/10/03 05:21:48;;;;;;;8.70;4.20;;;;;;;7.39;90.83;97817.75;5002773;28;20057;-65
2021/10/03 05:24:15;;;;;;;8.80;3.88;;;;;;;7.40;90.49;97819.34;5003386;28;20053;-67
2021/10/03 05:26:42;;;;;;;8.00;4.80;;;;;;;7.55;91.04;97824.31;5003694;28;20050;-66
2021/10/03 05:29:09;;;;;;;7.65;4.18;;;;;;;7.38;89.83;97771.22;5003249;28;20500;-66
2021/10/03 05:31:35;;;;;;;19.65;8.95;;;;;;;7.87;89.38;97824.78;5002965;28;20064;-66
2021/10/03 05:34:02;;;;;;;12.77;6.40;;;;;;;7.94;89.03;97827.81;5003189;28;20239;-66
2021/10/03 05:36:29;;;;;;;14.27;8.00;;;;;;;8.04;89.04;97810.88;5003201;28;20061;-66
2021/10/03 05:38:59;;;;;;;17.23;8.15;;;;;;;8.34;87.34;97826.28;5003409;28;20056;-68
2021/10/03 05:41:27;;;;;;;13.77;8.68;;;;;;;8.56;86.34;97835.03;5002768;28;20050;-67
2021/10/03 05:43:55;;;;;;;14.05;8.00;;;;;;;8.71;85.91;97836.34;5001631;28;20054;-67
2021/10/03 05:46:23;;;;;;;21.15;7.88;;;;;;;8.93;83.36;97827.69;5003068;28;20481;-66
2021/10/03 05:48:50;;;;;;;14.30;8.18;;;;;;;9.04;82.79;97831.66;5003130;28;20127;-67
2021/10/03 05:51:17;;;;;;;13.63;7.20;;;;;;;8.86;81.63;97805.31;5001300;28;20502;-67
2021/10/03 05:53:43;;;;;;;10.32;5.53;;;;;;;9.17;80.94;97844.31;5002725;28;20167;-66
2021/10/03 05:56:11;;;;;;;14.77;6.82;;;;;;;8.37;82.21;97715.19;5001203;28;20426;-67
2021/10/03 05:58:38;;;;;;;14.23;7.63;;;;;;;8.30;83.52;97721.25;5003495;28;20058;-66
2021/10/03 06:01:04;;;;;;;12.23;7.80;;;;;;;8.30;83.67;97709.41;5002819;28;20057;-68
2021/10/03 06:03:35;;;;;;;20.77;8.32;;;;;;;9.23;83.83;97825.56;5002676;28;20057;-67
2021/10/03 06:06:02;;;;;;;15.20;8.93;;;;;;;9.30;82.51;97810.03;5000672;28;20050;-68
2021/10/03 06:08:28;;;;;;;9.32;6.90;;;;;;;9.62;80.09;97795.31;5002719;28;20192;-67
2021/10/03 06:10:55;;;;;;;13.60;7.22;;;;;;;10.10;78.57;97845.13;5002281;28;20049;-66
2021/10/03 06:13:22;;;;;;;13.65;7.78;;;;;;;9.96;78.02;97785.72;5002655;28;20100;-65
2021/10/03 06:15:50;;;;;;;14.32;8.68;;;;;;;10.49;76.75;97835.25;5003016;28;20045;-67
2021/10/03 06:18:16;;;;;;;18.02;9.02;;;;;;;10.59;76.71;97824.47;5002900;28;20060;-64
2021/10/03 06:20:43;;;;;;;15.98;9.25;;;;;;;10.87;75.67;97841.13;5000858;28;20508;-65
2021/10/03 06:23:10;;;;;;;20.85;10.13;;;;;;;10.78;74.99;97803.66;5000450;28;20065;-65
2021/10/03 06:25:37;;;;;;;17.48;9.68;;;;;;;10.99;74.17;97798.66;5002095;28;20078;-65
2021/10/03 06:28:04;;;;;;;12.98;8.88;;;;;;;11.09;72.54;97770.44;5002577;28;20062;-67
2021/10/03 06:30:31;;;;;;;13.43;8.38;;;;;;;11.54;71.89;97837.44;5000252;28;20496;-66
2021/10/03 06:33:00;;;;;;;18.27;8.98;;;;;;;11.67;72.41;97833.41;5002308;28;20053;-67
2021/10/03 06:35:29;;;;;;;14.45;8.57;;;;;;;11.87;73.16;97830.34;5002085;28;20093;-67
2021/10/03 06:37:57;;;;;;;14.68;8.80;;;;;;;12.09;73.02;97828.91;5001930;28;20507;-66
2021/10/03 06:40:24;;;;;;;17.85;9.63;;;;;;;12.27;71.70;97827.34;5000327;28;20054;-66
2021/10/03 06:42:51;;;;;;;12.40;6.57;;;;;;;12.50;70.23;97822.72;5000453;28;20058;-65
2021/10/03 06:45:18;;;;;;;10.80;6.45;;;;;;;12.63;69.41;97821.41;5000656;28;20065;-64
2021/10/03 06:47:45;;;;;;;11.00;6.90;;;;;;;12.33;67.77;97759.22;5001880;28;20427;-65
2021/10/03 06:50:12;;;;;;;8.85;6.47;;;;;;;12.61;67.57;97782.06;5002148;28;20050;-64
2021/10/03 06:52:38;;;;;;;10.85;7.15;;;;;;;13.07;67.39;97821.94;5000462;28;20144;-65
2021/10/03 06:55:06;;;;;;;9.77;6.53;;;;;;;13.18;66.40;97807.06;5001643;28;20053;-64
2021/10/03 06:57:33;;;;;;;9.88;5.78;;;;;;;13.38;66.18;97817.00;5000518;28;20054;-66
2021/10/03 07:00:01;;;;;;;12.57;6.88;;;;;;;13.57;65.80;97816.94;5000367;28;20058;-67
2021/10/03 07:02:29;;;;;;;11.95;5.68;;;;;;;13.16;65.73;97753.78;5001336;28;20064;-66
2021/10/03 07:04:56;;;;;;;11.30;5.45;;;;;;;13.92;66.02;97829.84;5000834;28;20053;-67
2021/10/03 07:07:23;;;;;;;6.65;4.35;;;;;;;13.92;63.60;97786.09;4999348;28;20172;-66
2021/10/03 07:09:50;;;;;;;6.35;3.55;;;;;;;14.26;62.36;97823.25;5001993;28;20409;-70
2021/10/03 07:12:17;;;;;;;6.40;4.00;;;;;;;13.87;62.76;97732.69;5000332;28;20053;-67
2021/10/03 07:14:44;;;;;;;6.45;4.40;;;;;;;13.89;62.44;97699.69;5001823;28;20140;-66
2021/10/03 07:17:12;;;;;;;8.50;4.22;;;;;;;13.73;63.44;97660.88;5000204;28;20134;-66
2021/10/03 07:19:39;;;;;;;7.88;4.28;;;;;;;13.37;61.15;97570.47;5001739;28;20053;-66
2021/10/03 07:22:10;;;;;;;7.55;3.83;;;;;;;14.66;61.02;97792.78;5000152;28;20068;-66
2021/10/03 07:24:37;;;;;;;5.18;3.13;;;;;;;14.88;59.56;97817.78;5001661;28;20073;-67
2021/10/03 07:27:05;;;;;;;10.75;3.95;;;;;;;15.00;60.19;97819.53;4999927;28;20098;-65
2021/10/03 07:29:32;;;;;;;7.63;3.55;;;;;;;15.22;59.74;97826.97;4999861;28;20482;-66
2021/10/03 07:31:59;;;;;;;6.60;3.83;;;;;;;15.38;59.48;97823.94;5000204;28;20099;-65
2021/10/03 07:34:28;;;;;;;6.53;4.35;;;;;;;14.84;59.94;97705.31;5001322;28;20580;-66
2021/10/03 07:36:56;;;;;;;5.85;3.60;;;;;;;15.53;58.73;97786.59;5000906;28;20543;-67
2021/10/03 07:39:23;;;;;;;8.00;4.18;;;;;;;15.32;58.73;97734.13;5001572;28;20062;-67
2021/10/03 07:41:51;;;;;;;7.63;3.72;;;;;;;16.07;57.72;97821.03;5000873;28;20081;-68
2021/10/03 07:44:18;;;;;;;5.88;3.90;;;;;;;16.06;56.73;97822.22;5001700;28;20060;-68
2021/10/03 07:46:45;;;;;;;8.10;4.40;;;;;;;16.10;56.30;97823.06;5001249;28;20053;-69
2021/10/03 07:49:13;;;;;;;7.95;4.95;;;;;;;14.87;56.52;97643.19;4999702;28;20410;-69
2021/10/03 07:51:40;;;;;;;8.50;4.18;;;;;;;16.39;55.51;97824.06;5000932;28;20531;-70
2021/10/03 07:54:07;;;;;;;8.88;4.63;;;;;;;15.98;55.56;97784.22;5000990;28;20493;-70
2021/10/03 07:56:34;;;;;;;4.63;3.60;;;;;;;16.65;55.02;97818.25;5001105;28;20050;-69
2021/10/03 07:59:00;;;;;;;4.07;3.00;;;;;;;16.73;54.64;97827.47;5001182;28;20133;-70
2021/10/03 08:01:27;;;;;;;6.60;3.53;;;;;;;16.53;52.90;97774.63;4999800;28;20046;-70
2021/10/03 08:03:55;;;;;;;7.38;3.00;;;;;;;16.87;51.28;97799.56;5001126;28;20069;-70
2021/10/03 08:06:22;;;;;;;7.95;3.13;;;;;;;17.04;49.27;97818.47;4999610;28;20414;-69
2021/10/03 08:08:48;;;;;;;6.30;3.00;;;;;;;17.06;48.34;97802.84;5000733;28;20050;-70
2021/10/03 08:11:15;;;;;;;3.78;2.38;;;;;;;17.35;47.95;97820.56;5000686;28;20053;-70
2021/10/03 08:13:42;;;;;;;12.00;3.10;;;;;;;17.54;47.87;97817.44;5000986;28;20050;-70
2021/10/03 08:16:10;;;;;;;4.38;3.03;;;;;;;17.49;46.94;97787.00;5001154;28;20058;-70
2021/10/03 08:18:37;;;;;;;9.07;4.22;;;;;;;17.19;47.71;97767.72;5003306;28;20058;-70
2021/10/03 08:21:04;;;;;;;13.20;5.47;;;;;;;16.48;45.74;97741.44;5003829;28;20115;-70
2021/10/03 08:23:31;;;;;;;10.32;4.53;;;;;;;17.05;47.72;97828.44;5002614;28;20068;-69
2021/10/03 08:25:58;;;;;;;6.20;3.38;;;;;;;16.89;46.53;97772.81;5004173;28;20161;-69
2021/10/03 08:28:25;;;;;;;5.18;2.85;;;;;;;16.57;46.69;97727.09;5002566;28;20432;-70
2021/10/03 08:30:52;;;;;;;5.32;3.38;;;;;;;17.31;47.48;97814.94;5002570;28;20060;-70
2021/10/03 08:33:20;;;;;;;8.45;3.00;;;;;;;17.16;47.35;97762.09;5002883;28;20499;-68
2021/10/03 08:35:47;;;;;;;6.60;2.70;;;;;;;17.13;46.16;97732.09;5002409;28;20054;-70
2021/10/03 08:38:13;;;;;;;12.27;5.13;;;;;;;17.63;46.28;97817.84;5005899;28;20066;-69
2021/10/03 08:40:40;;;;;;;7.32;3.92;;;;;;;17.50;46.00;97816.59;5003340;28;20061;-69
2021/10/03 08:43:08;;;;;;;10.15;3.25;;;;;;;17.57;46.95;97811.03;5003787;28;20058;-69
2021/10/03 08:45:43;;;;;;;7.00;3.20;;;;;;;17.75;46.45;97806.28;5002277;28;20053;-69
2021/10/03 08:48:16;;;;;;;6.90;3.80;;;;;;;17.97;46.19;97802.28;5003611;28;20062;-70
2021/10/03 08:50:45;;;;;;;3.70;3.17;;;;;;;18.05;46.17;97809.50;5004242;28;20397;-69
2021/10/03 08:53:14;;;;;;;5.55;3.40;;;;;;;16.88;45.70;97622.06;5003900;28;20064;-70
2021/10/03 08:55:40;;;;;;;4.22;3.38;;;;;;;17.29;46.39;97766.13;5002527;28;20054;-70
2021/10/03 08:58:07;;;;;;;5.78;3.17;;;;;;;17.60;46.09;97799.03;4986018;28;20077;-70
2021/10/03 09:00:45;;;;;;;5.88;3.03;;;;;;;17.59;46.49;97758.22;4982928;28;20062;-69
2021/10/03 09:03:13;;;;;;;5.55;3.42;;;;;;;17.86;46.00;97773.44;4983776;28;20061;-71
2021/10/03 09:05:51;;;;;;;4.88;3.47;;;;;;;17.93;45.78;97793.88;4982654;28;20050;-70
2021/10/03 09:08:21;;;;;;;7.38;3.20;;;;;;;18.20;45.75;97794.25;4984126;28;20058;-70
2021/10/03 09:11:06;;;;;;;6.30;2.88;;;;;;;16.25;45.67;97444.53;4983510;28;20057;-70
2021/10/03 09:13:33;;;;;;;6.25;3.05;;;;;;;18.41;46.27;97783.03;4982304;28;20056;-71
2021/10/03 09:16:14;;;;;;;5.75;2.60;;;;;;;18.62;45.18;97787.81;4984187;28;20493;-70
2021/10/03 09:18:53;;;;;;;4.43;2.80;;;;;;;18.65;44.49;97787.78;4983880;28;20070;-69
2021/10/03 09:21:29;;;;;;;5.57;2.83;;;;;;;18.58;45.77;97787.81;4983331;28;20448;-71
2021/10/03 09:24:13;;;;;;;5.32;2.85;;;;;;;18.09;45.73;97692.50;4983739;28;20141;-69
2021/10/03 09:27:03;;;;;;;6.57;2.63;;;;;;;18.91;45.67;97783.69;4983858;28;20058;-70
2021/10/03 09:29:33;;;;;;;4.15;3.00;;;;;;;18.72;44.23;97726.00;4981576;28;20156;-69
2021/10/03 09:32:15;;;;;;;6.25;2.95;;;;;;;19.13;45.29;97780.38;4982493;28;20131;-70
2021/10/03 09:34:47;;;;;;;7.65;3.78;;;;;;;18.96;44.28;97753.19;4984027;28;20054;-69
2021/10/03 09:37:17;;;;;;;4.43;2.85;;;;;;;19.22;44.90;97768.72;4983643;28;20068;-69
2021/10/03 09:39:44;;;;;;;4.65;2.83;;;;;;;19.30;43.31;97775.94;4982022;28;20050;-70
2021/10/03 09:42:12;;;;;;;7.28;2.85;;;;;;;19.40;42.67;97773.06;4983313;28;20453;-69
2021/10/03 09:44:39;;;;;;;6.03;3.60;;;;;;;17.78;45.19;97676.56;4983301;28;20787;-68
2021/10/03 09:47:06;;;;;;;6.05;3.92;;;;;;;18.45;46.42;97758.56;4981694;28;20085;-69
2021/10/03 09:49:33;;;;;;;5.93;3.67;;;;;;;18.80;45.49;97758.47;4981882;28;20065;-71
2021/10/03 09:52:00;;;;;;;9.20;4.10;;;;;;;18.70;46.13;97705.97;4981990;28;20061;-71
2021/10/03 09:54:27;;;;;;;11.18;4.38;;;;;;;18.93;44.34;97697.03;4983393;28;20061;-73
2021/10/03 09:56:55;;;;;;;6.00;4.03;;;;;;;19.12;43.72;97733.84;4983263;28;20050;-73
2021/10/03 09:59:21;;;;;;;7.10;2.78;;;;;;;18.12;44.96;97714.13;4981540;28;20213;-71
2021/10/03 10:01:48;;;;;;;5.55;3.63;;;;;;;17.67;44.74;97633.72;4982857;28;20050;-73
2021/10/03 10:04:17;;;;;;;7.72;4.30;;;;;;;18.27;45.00;97738.16;4982917;28;20494;-71
2021/10/03 10:06:45;;;;;;;10.90;5.85;;;;;;;18.79;45.46;97748.47;4983134;28;20053;-70
2021/10/03 10:09:19;;;;;;;5.78;3.53;;;;;;;18.43;43.70;97685.22;4983461;28;20065;-73
2021/10/03 10:11:54;;;;;;;8.85;4.00;;;;;;;18.74;44.74;97737.66;4983251;28;20054;-74
2021/10/03 10:14:29;;;;;;;12.35;5.53;;;;;;;18.96;44.77;97739.16;4983369;28;20540;-72
2021/10/03 10:17:00;;;;;;;8.32;4.82;;;;;;;17.77;44.47;97562.81;4981370;28;20057;-71
2021/10/03 10:19:40;;;;;;;11.00;4.68;;;;;;;18.63;44.38;97666.72;4982659;28;20572;-72
2021/10/03 10:22:19;;;;;;;9.05;4.30;;;;;;;19.29;43.15;97738.59;4983168;28;20061;-72
2021/10/03 10:25:00;;;;;;;8.43;4.45;;;;;;;19.48;43.63;97740.88;4981374;28;21027;-73
2021/10/03 10:27:29;;;;;;;6.78;4.20;;;;;;;19.80;43.25;97739.84;4983306;28;20065;-72
2021/10/03 10:30:12;;;;;;;8.52;2.95;;;;;;;18.98;44.47;97728.31;4981223;28;20054;-72
2021/10/03 10:33:04;;;;;;;4.60;3.53;;;;;;;18.93;44.88;97727.94;4982812;28;20124;-73
2021/10/03 10:35:34;;;;;;;5.00;3.15;;;;;;;18.85;45.64;97729.97;4982794;28;20065;-72
2021/10/03 10:38:01;;;;;;;4.10;3.17;;;;;;;19.19;43.98;97722.56;4982248;28;20086;-74
2021/10/03 10:40:31;;;;;;;4.70;3.03;;;;;;;19.13;44.04;97718.59;4981033;28;20066;-71
2021/10/03 10:43:04;;;;;;;7.72;3.78;;;;;;;19.47;44.28;97707.56;4980817;28;20465;-72
2021/10/03 10:45:33;;;;;;;6.37;3.47;;;;;;;19.83;43.34;97710.88;4980910;28;20569;-72
2021/10/03 10:48:09;;;;;;;9.73;6.28;;;;;;;20.27;42.44;97703.25;4982479;28;20305;-75
2021/10/03 10:50:43;;;;;;;10.85;3.83;;;;;;;20.55;41.84;97702.16;4982716;28;20054;-73
2021/10/03 10:53:38;;;;;;;4.93;3.13;;;;;;;20.81;41.67;97701.44;4982000;28;20517;-72
2021/10/03 10:56:06;;;;;;;3.92;3.25;;;;;;;20.90;40.10;97702.50;4982007;28;20050;-73
2021/10/03 10:58:37;;;;;;;6.88;3.13;;;;;;;20.31;41.67;97669.47;4982340;28;20054;-70
2021/10/03 11:01:11;;;;;;;4.28;3.00;;;;;;;20.89;41.15;97686.03;4981921;28;20081;-71
2021/10/03 11:03:41;;;;;;;6.82;3.15;;;;;;;21.17;40.43;97685.66;4982296;28;20065;-71
2021/10/03 11:06:30;;;;;;;6.32;3.90;;;;;;;21.20;39.95;97669.94;4980862;28;20054;-72
2021/10/03 11:08:56;;;;;;;5.43;3.38;;;;;;;20.68;40.59;97683.47;4988871;28;20061;-71
2021/10/03 11:11:27;;;;;;;4.90;3.42;;;;;;;20.93;41.33;97678.31;4981976;28;20046;-70
2021/10/03 11:13:58;;;;;;;7.28;4.15;;;;;;;18.59;40.98;97264.63;4982007;28;20505;-71
2021/10/03 11:16:42;;;;;;;14.38;7.50;;;;;;;21.14;41.08;97678.06;4981775;28;20060;-72
2021/10/03 11:19:41;;;;;;;8.95;3.75;;;;;;;21.21;40.84;97672.34;5060657;28;20390;-70
2021/10/03 11:22:11;;;;;;;4.72;3.42;;;;;;;21.44;39.94;97675.19;5059388;28;20056;-72
2021/10/03 11:24:47;;;;;;;5.72;3.70;;;;;;;21.32;40.03;97644.78;5060903;28;20156;-69
2021/10/03 11:27:17;;;;;;;7.40;3.50;;;;;;;21.69;39.67;97664.31;5060739;28;20822;-71
2021/10/03 11:29:53;;;;;;;6.07;2.97;;;;;;;21.82;39.40;97668.16;5060356;28;20832;-70
2021/10/03 11:32:24;;;;;;;6.90;4.35;;;;;;;21.82;39.61;97662.50;5058671;28;20523;-71
2021/10/03 11:35:13;;;;;;;8.07;4.50;;;;;;;21.40;39.59;97651.91;5058550;28;20055;-69
2021/10/03 11:37:52;;;;;;;7.53;4.20;;;;;;;21.63;40.20;97632.19;5060275;28;20147;-70
2021/10/03 11:40:25;;;;;;;6.22;3.72;;;;;;;21.19;39.08;97499.25;5060003;28;20501;-71
2021/10/03 11:42:57;;;;;;;6.20;4.22;;;;;;;21.10;39.89;97615.34;5060403;28;20064;-72